Cromberg, California
Current Conditions -  °F | °C
As of 4:52 PM on Friday 24 Oct 2014 (Local Time) from KBLU Reporting Station
Clear Clear  
Wind Chill: 62°   Ceiling: Unl
Heat Index: 62°   Visibility: 10mi
Dew Point: 31°   Wind: 15mph
Humidity: 31%   Direction: 170°S
Pressure: 30.06"   Gusts: NA
Location:  39.7722°N, 120.711°W
Report Text: KBLU 242352Z AUTO 17013KT 10SM CLR 17/M01 A3006 RMK AO2 SLP117 T01671006 10183 20161 56010
Loading
Personal Weather Stations






























Interactive Weather Map
Tropical Storm Tracking
New forecast layout! Learn more

10-Day Weather Forecast

Advertisements
Track Severe Weather on mobile